sensor_id;sensor_type;location;lat;lon;timestamp;temperature;humidity
54168;DHT22;68429;50.958;3.592;2023-04-15T00:02:00;10.20;99.90
54168;DHT22;68429;50.958;3.592;2023-04-15T00:04:26;10.40;99.90
54168;DHT22;68429;50.958;3.592;2023-04-15T00:06:53;10.40;99.90
54168;DHT22;68429;50.958;3.592;2023-04-15T00:09:20;10.30;99.90
54168;DHT22;68429;50.958;3.592;2023-04-15T00:11:45;9.70;99.90
54168;DHT22;68429;50.958;3.592;2023-04-15T00:14:12;9.70;99.90
54168;DHT22;68429;50.958;3.592;2023-04-15T00:16:38;10.00;99.90
54168;DHT22;68429;50.958;3.592;2023-04-15T00:19:04;10.10;99.90
54168;DHT22;68429;50.958;3.592;2023-04-15T00:21:29;10.00;99.90
54168;DHT22;68429;50.958;3.592;2023-04-15T00:23:55;10.10;99.90
54168;DHT22;68429;50.958;3.592;2023-04-15T00:26:21;10.00;99.90
54168;DHT22;68429;50.958;3.592;2023-04-15T00:28:47;9.90;99.90
54168;DHT22;68429;50.958;3.592;2023-04-15T00:31:13;9.90;99.90
54168;DHT22;68429;50.958;3.592;2023-04-15T00:33:39;10.00;99.90
54168;DHT22;68429;50.958;3.592;2023-04-15T00:36:06;10.00;99.90
54168;DHT22;68429;50.958;3.592;2023-04-15T00:38:32;10.10;99.90
54168;DHT22;68429;50.958;3.592;2023-04-15T00:40:58;10.10;99.90
54168;DHT22;68429;50.958;3.592;2023-04-15T00:43:24;10.50;99.90
54168;DHT22;68429;50.958;3.592;2023-04-15T00:45:52;10.70;99.90
54168;DHT22;68429;50.958;3.592;2023-04-15T00:48:19;10.70;99.90
54168;DHT22;68429;50.958;3.592;2023-04-15T00:50:45;10.70;99.90
54168;DHT22;68429;50.958;3.592;2023-04-15T00:53:10;10.70;99.90
54168;DHT22;68429;50.958;3.592;2023-04-15T00:55:36;10.70;99.90
54168;DHT22;68429;50.958;3.592;2023-04-15T00:58:02;10.70;99.90
54168;DHT22;68429;50.958;3.592;2023-04-15T01:00:28;10.50;99.90
54168;DHT22;68429;50.958;3.592;2023-04-15T01:02:54;10.40;99.90
54168;DHT22;68429;50.958;3.592;2023-04-15T01:05:20;10.40;99.90
54168;DHT22;68429;50.958;3.592;2023-04-15T01:07:47;10.50;99.90
54168;DHT22;68429;50.958;3.592;2023-04-15T01:10:13;10.50;99.90
54168;DHT22;68429;50.958;3.592;2023-04-15T01:12:38;10.60;99.90
54168;DHT22;68429;50.958;3.592;2023-04-15T01:15:05;10.50;99.90
54168;DHT22;68429;50.958;3.592;2023-04-15T01:17:31;10.50;99.90
54168;DHT22;68429;50.958;3.592;2023-04-15T01:19:57;10.30;99.90
54168;DHT22;68429;50.958;3.592;2023-04-15T01:22:24;10.30;99.90
54168;DHT22;68429;50.958;3.592;2023-04-15T01:24:59;10.30;99.90
54168;DHT22;68429;50.958;3.592;2023-04-15T01:27:26;10.40;99.90
54168;DHT22;68429;50.958;3.592;2023-04-15T01:29:52;10.50;99.90
54168;DHT22;68429;50.958;3.592;2023-04-15T01:32:18;10.60;99.90
54168;DHT22;68429;50.958;3.592;2023-04-15T01:34:44;10.50;99.90
54168;DHT22;68429;50.958;3.592;2023-04-15T01:37:10;10.40;99.90
54168;DHT22;68429;50.958;3.592;2023-04-15T01:39:36;10.40;99.90
54168;DHT22;68429;50.958;3.592;2023-04-15T01:42:01;10.30;99.90
54168;DHT22;68429;50.958;3.592;2023-04-15T01:44:28;10.20;99.90
54168;DHT22;68429;50.958;3.592;2023-04-15T01:46:54;10.10;99.90
54168;DHT22;68429;50.958;3.592;2023-04-15T01:49:20;10.00;99.90
54168;DHT22;68429;50.958;3.592;2023-04-15T01:51:45;10.00;99.90
54168;DHT22;68429;50.958;3.592;2023-04-15T01:54:11;10.00;99.90
54168;DHT22;68429;50.958;3.592;2023-04-15T01:56:36;10.00;99.90
54168;DHT22;68429;50.958;3.592;2023-04-15T01:59:03;10.00;99.90
54168;DHT22;68429;50.958;3.592;2023-04-15T02:01:29;9.90;99.90
54168;DHT22;68429;50.958;3.592;2023-04-15T02:03:54;9.90;99.90
54168;DHT22;68429;50.958;3.592;2023-04-15T02:06:20;9.80;99.90
54168;DHT22;68429;50.958;3.592;2023-04-15T02:08:45;9.70;99.90
54168;DHT22;68429;50.958;3.592;2023-04-15T02:11:11;9.70;99.90
54168;DHT22;68429;50.958;3.592;2023-04-15T02:13:37;9.60;99.90
54168;DHT22;68429;50.958;3.592;2023-04-15T02:16:02;9.60;99.90
54168;DHT22;68429;50.958;3.592;2023-04-15T02:18:28;9.60;99.90
54168;DHT22;68429;50.958;3.592;2023-04-15T02:20:54;9.70;99.90
54168;DHT22;68429;50.958;3.592;2023-04-15T02:23:21;9.60;99.90
54168;DHT22;68429;50.958;3.592;2023-04-15T02:25:47;9.70;99.90
54168;DHT22;68429;50.958;3.592;2023-04-15T02:28:12;9.80;99.90
54168;DHT22;68429;50.958;3.592;2023-04-15T02:30:38;9.70;99.90
54168;DHT22;68429;50.958;3.592;2023-04-15T02:33:05;9.60;99.90
54168;DHT22;68429;50.958;3.592;2023-04-15T02:35:32;9.60;99.90
54168;DHT22;68429;50.958;3.592;2023-04-15T02:37:57;9.70;99.90
54168;DHT22;68429;50.958;3.592;2023-04-15T02:40:23;9.60;99.90
54168;DHT22;68429;50.958;3.592;2023-04-15T02:42:49;9.70;99.90
54168;DHT22;68429;50.958;3.592;2023-04-15T02:45:15;9.80;99.90
54168;DHT22;68429;50.958;3.592;2023-04-15T02:47:42;9.70;99.90
54168;DHT22;68429;50.958;3.592;2023-04-15T02:50:11;9.70;99.90
54168;DHT22;68429;50.958;3.592;2023-04-15T02:52:41;9.70;99.90
54168;DHT22;68429;50.958;3.592;2023-04-15T02:55:08;9.80;99.90
54168;DHT22;68429;50.958;3.592;2023-04-15T02:57:34;9.70;99.90
54168;DHT22;68429;50.958;3.592;2023-04-15T03:00:03;9.50;99.90
54168;DHT22;68429;50.958;3.592;2023-04-15T03:02:38;9.50;99.90
54168;DHT22;68429;50.958;3.592;2023-04-15T03:05:04;9.50;99.90
54168;DHT22;68429;50.958;3.592;2023-04-15T03:07:31;9.60;99.90
54168;DHT22;68429;50.958;3.592;2023-04-15T03:09:56;9.70;99.90
54168;DHT22;68429;50.958;3.592;2023-04-15T03:12:22;9.80;99.90
54168;DHT22;68429;50.958;3.592;2023-04-15T03:14:48;9.70;99.90
54168;DHT22;68429;50.958;3.592;2023-04-15T03:17:14;9.60;99.90
54168;DHT22;68429;50.958;3.592;2023-04-15T03:19:40;9.70;99.90
54168;DHT22;68429;50.958;3.592;2023-04-15T03:22:05;9.60;99.90
54168;DHT22;68429;50.958;3.592;2023-04-15T03:24:31;9.70;99.90
54168;DHT22;68429;50.958;3.592;2023-04-15T03:26:56;9.70;99.90
54168;DHT22;68429;50.958;3.592;2023-04-15T03:29:23;9.60;99.90
54168;DHT22;68429;50.958;3.592;2023-04-15T03:31:48;9.70;99.90
54168;DHT22;68429;50.958;3.592;2023-04-15T03:34:14;9.70;99.90
54168;DHT22;68429;50.958;3.592;2023-04-15T03:36:40;9.70;99.90
54168;DHT22;68429;50.958;3.592;2023-04-15T03:39:06;9.70;99.90
54168;DHT22;68429;50.958;3.592;2023-04-15T03:41:31;9.60;99.90
54168;DHT22;68429;50.958;3.592;2023-04-15T03:43:57;9.40;99.90
54168;DHT22;68429;50.958;3.592;2023-04-15T03:46:23;9.50;99.90
54168;DHT22;68429;50.958;3.592;2023-04-15T03:48:48;9.40;99.90
54168;DHT22;68429;50.958;3.592;2023-04-15T03:51:14;9.40;99.90
54168;DHT22;68429;50.958;3.592;2023-04-15T03:53:39;9.40;99.90
54168;DHT22;68429;50.958;3.592;2023-04-15T03:56:05;9.40;99.90
54168;DHT22;68429;50.958;3.592;2023-04-15T03:58:31;9.40;99.90
54168;DHT22;68429;50.958;3.592;2023-04-15T04:00:57;9.40;99.90
54168;DHT22;68429;50.958;3.592;2023-04-15T04:03:22;9.50;99.90
54168;DHT22;68429;50.958;3.592;2023-04-15T04:05:48;9.70;99.90
54168;DHT22;68429;50.958;3.592;2023-04-15T04:08:14;9.70;99.90
54168;DHT22;68429;50.958;3.592;2023-04-15T04:10:41;9.60;99.90
54168;DHT22;68429;50.958;3.592;2023-04-15T04:13:06;9.70;99.90
54168;DHT22;68429;50.958;3.592;2023-04-15T04:15:32;9.70;99.90
54168;DHT22;68429;50.958;3.592;2023-04-15T04:17:58;9.70;99.90
54168;DHT22;68429;50.958;3.592;2023-04-15T04:20:23;9.90;99.90
54168;DHT22;68429;50.958;3.592;2023-04-15T04:22:49;9.80;99.90
54168;DHT22;68429;50.958;3.592;2023-04-15T04:25:15;9.80;99.90
54168;DHT22;68429;50.958;3.592;2023-04-15T04:27:40;9.80;99.90
54168;DHT22;68429;50.958;3.592;2023-04-15T04:30:07;9.90;99.90
54168;DHT22;68429;50.958;3.592;2023-04-15T04:32:33;9.80;99.90
54168;DHT22;68429;50.958;3.592;2023-04-15T04:34:58;9.70;99.90
54168;DHT22;68429;50.958;3.592;2023-04-15T04:37:24;9.50;99.90
54168;DHT22;68429;50.958;3.592;2023-04-15T04:39:50;9.50;99.90
54168;DHT22;68429;50.958;3.592;2023-04-15T04:42:15;9.50;99.90
54168;DHT22;68429;50.958;3.592;2023-04-15T04:44:41;9.50;99.90
54168;DHT22;68429;50.958;3.592;2023-04-15T04:47:07;9.40;99.90
54168;DHT22;68429;50.958;3.592;2023-04-15T04:49:32;9.30;99.90
54168;DHT22;68429;50.958;3.592;2023-04-15T04:51:59;9.30;99.90
54168;DHT22;68429;50.958;3.592;2023-04-15T04:54:24;9.20;99.90
54168;DHT22;68429;50.958;3.592;2023-04-15T04:56:52;8.90;99.90
54168;DHT22;68429;50.958;3.592;2023-04-15T04:59:17;8.90;99.90
54168;DHT22;68429;50.958;3.592;2023-04-15T05:01:43;8.90;99.90
54168;DHT22;68429;50.958;3.592;2023-04-15T05:04:09;8.80;99.90
54168;DHT22;68429;50.958;3.592;2023-04-15T05:06:34;9.00;99.90
54168;DHT22;68429;50.958;3.592;2023-04-15T05:09:01;8.90;99.90
54168;DHT22;68429;50.958;3.592;2023-04-15T05:11:28;8.90;99.90
54168;DHT22;68429;50.958;3.592;2023-04-15T05:13:53;8.90;99.90
54168;DHT22;68429;50.958;3.592;2023-04-15T05:16:19;8.90;99.90
54168;DHT22;68429;50.958;3.592;2023-04-15T05:18:45;8.90;99.90
54168;DHT22;68429;50.958;3.592;2023-04-15T05:21:11;9.00;99.90
54168;DHT22;68429;50.958;3.592;2023-04-15T05:23:36;9.00;99.90
54168;DHT22;68429;50.958;3.592;2023-04-15T05:26:02;9.10;99.90
54168;DHT22;68429;50.958;3.592;2023-04-15T05:28:28;9.00;99.90
54168;DHT22;68429;50.958;3.592;2023-04-15T05:30:54;9.00;99.90
54168;DHT22;68429;50.958;3.592;2023-04-15T05:33:19;9.10;99.90
54168;DHT22;68429;50.958;3.592;2023-04-15T05:35:45;9.00;99.90
54168;DHT22;68429;50.958;3.592;2023-04-15T05:38:11;9.10;99.90
54168;DHT22;68429;50.958;3.592;2023-04-15T05:40:36;9.10;99.90
54168;DHT22;68429;50.958;3.592;2023-04-15T05:43:02;9.10;99.90
54168;DHT22;68429;50.958;3.592;2023-04-15T05:45:28;9.20;99.90
54168;DHT22;68429;50.958;3.592;2023-04-15T05:47:53;9.30;99.90
54168;DHT22;68429;50.958;3.592;2023-04-15T05:50:19;9.40;99.90
54168;DHT22;68429;50.958;3.592;2023-04-15T05:52:46;9.40;99.90
54168;DHT22;68429;50.958;3.592;2023-04-15T05:55:11;9.50;99.90
54168;DHT22;68429;50.958;3.592;2023-04-15T05:57:37;9.70;99.90
54168;DHT22;68429;50.958;3.592;2023-04-15T06:00:04;9.80;99.90
54168;DHT22;68429;50.958;3.592;2023-04-15T06:02:30;9.70;99.90
54168;DHT22;68429;50.958;3.592;2023-04-15T06:04:56;9.70;99.90
54168;DHT22;68429;50.958;3.592;2023-04-15T06:07:22;9.70;99.90
54168;DHT22;68429;50.958;3.592;2023-04-15T06:09:48;9.80;99.90
54168;DHT22;68429;50.958;3.592;2023-04-15T06:12:14;9.80;99.90
54168;DHT22;68429;50.958;3.592;2023-04-15T06:14:41;9.70;99.90
54168;DHT22;68429;50.958;3.592;2023-04-15T06:17:07;9.90;99.90
54168;DHT22;68429;50.958;3.592;2023-04-15T06:19:33;9.40;99.90
54168;DHT22;68429;50.958;3.592;2023-04-15T06:21:59;9.60;99.90
54168;DHT22;68429;50.958;3.592;2023-04-15T06:24:25;9.90;99.90
54168;DHT22;68429;50.958;3.592;2023-04-15T06:26:51;9.90;99.90
54168;DHT22;68429;50.958;3.592;2023-04-15T06:29:17;10.10;99.90
54168;DHT22;68429;50.958;3.592;2023-04-15T06:31:42;10.30;99.90
54168;DHT22;68429;50.958;3.592;2023-04-15T06:34:08;10.60;99.90
54168;DHT22;68429;50.958;3.592;2023-04-15T06:36:34;10.60;99.90
54168;DHT22;68429;50.958;3.592;2023-04-15T06:38:59;10.60;99.90
54168;DHT22;68429;50.958;3.592;2023-04-15T06:41:26;10.60;99.90
54168;DHT22;68429;50.958;3.592;2023-04-15T06:43:51;10.60;99.90
54168;DHT22;68429;50.958;3.592;2023-04-15T06:46:17;10.50;99.90
54168;DHT22;68429;50.958;3.592;2023-04-15T06:48:43;10.50;99.90
54168;DHT22;68429;50.958;3.592;2023-04-15T06:51:08;10.50;99.90
54168;DHT22;68429;50.958;3.592;2023-04-15T06:53:34;10.40;99.90
54168;DHT22;68429;50.958;3.592;2023-04-15T06:56:06;10.60;99.90
54168;DHT22;68429;50.958;3.592;2023-04-15T06:58:32;10.90;99.90
54168;DHT22;68429;50.958;3.592;2023-04-15T07:00:58;11.10;99.90
54168;DHT22;68429;50.958;3.592;2023-04-15T07:03:23;11.40;99.90
54168;DHT22;68429;50.958;3.592;2023-04-15T07:05:49;11.50;99.90
54168;DHT22;68429;50.958;3.592;2023-04-15T07:08:15;11.50;99.90
54168;DHT22;68429;50.958;3.592;2023-04-15T07:10:40;11.60;99.90
54168;DHT22;68429;50.958;3.592;2023-04-15T07:13:06;11.50;99.90
54168;DHT22;68429;50.958;3.592;2023-04-15T07:15:33;11.40;99.90
54168;DHT22;68429;50.958;3.592;2023-04-15T07:17:59;11.40;99.90
54168;DHT22;68429;50.958;3.592;2023-04-15T07:20:24;11.70;99.90
54168;DHT22;68429;50.958;3.592;2023-04-15T07:22:50;11.90;99.90
54168;DHT22;68429;50.958;3.592;2023-04-15T07:25:16;12.20;99.90
54168;DHT22;68429;50.958;3.592;2023-04-15T07:27:42;12.30;99.90
54168;DHT22;68429;50.958;3.592;2023-04-15T07:30:08;12.10;99.90
54168;DHT22;68429;50.958;3.592;2023-04-15T07:32:34;12.10;99.90
54168;DHT22;68429;50.958;3.592;2023-04-15T07:35:00;12.20;99.90
54168;DHT22;68429;50.958;3.592;2023-04-15T07:37:26;12.30;99.90
54168;DHT22;68429;50.958;3.592;2023-04-15T07:39:52;12.40;99.90
54168;DHT22;68429;50.958;3.592;2023-04-15T07:42:18;12.30;99.90
54168;DHT22;68429;50.958;3.592;2023-04-15T07:44:44;12.60;99.90
54168;DHT22;68429;50.958;3.592;2023-04-15T07:47:10;12.60;99.90
54168;DHT22;68429;50.958;3.592;2023-04-15T07:49:36;12.40;99.90
54168;DHT22;68429;50.958;3.592;2023-04-15T07:52:02;12.40;99.90
54168;DHT22;68429;50.958;3.592;2023-04-15T07:54:28;12.70;99.90
54168;DHT22;68429;50.958;3.592;2023-04-15T07:56:54;12.80;99.90
54168;DHT22;68429;50.958;3.592;2023-04-15T07:59:20;12.80;99.90
54168;DHT22;68429;50.958;3.592;2023-04-15T08:01:47;12.70;99.90
54168;DHT22;68429;50.958;3.592;2023-04-15T08:04:12;12.70;99.90
54168;DHT22;68429;50.958;3.592;2023-04-15T08:06:39;12.90;99.90
54168;DHT22;68429;50.958;3.592;2023-04-15T08:09:05;13.10;99.90
54168;DHT22;68429;50.958;3.592;2023-04-15T08:11:31;13.10;99.90
54168;DHT22;68429;50.958;3.592;2023-04-15T08:13:57;13.10;99.90
54168;DHT22;68429;50.958;3.592;2023-04-15T08:16:24;13.10;99.90
54168;DHT22;68429;50.958;3.592;2023-04-15T08:18:51;13.20;99.90
54168;DHT22;68429;50.958;3.592;2023-04-15T08:21:18;13.20;99.90
54168;DHT22;68429;50.958;3.592;2023-04-15T08:23:46;13.50;99.90
54168;DHT22;68429;50.958;3.592;2023-04-15T08:26:12;13.70;99.90
54168;DHT22;68429;50.958;3.592;2023-04-15T08:28:39;14.00;99.90
54168;DHT22;68429;50.958;3.592;2023-04-15T08:31:05;14.20;99.90
54168;DHT22;68429;50.958;3.592;2023-04-15T08:33:32;14.40;99.90
54168;DHT22;68429;50.958;3.592;2023-04-15T08:35:57;14.60;99.90
54168;DHT22;68429;50.958;3.592;2023-04-15T08:38:23;14.50;99.90
54168;DHT22;68429;50.958;3.592;2023-04-15T08:40:49;14.90;99.90
54168;DHT22;68429;50.958;3.592;2023-04-15T08:43:23;15.00;99.90
54168;DHT22;68429;50.958;3.592;2023-04-15T08:45:53;14.90;99.90
54168;DHT22;68429;50.958;3.592;2023-04-15T08:48:20;15.30;99.90
54168;DHT22;68429;50.958;3.592;2023-04-15T08:50:46;16.00;99.90
54168;DHT22;68429;50.958;3.592;2023-04-15T08:53:13;16.60;99.90
54168;DHT22;68429;50.958;3.592;2023-04-15T08:55:44;17.40;99.90
54168;DHT22;68429;50.958;3.592;2023-04-15T08:58:11;18.00;99.90
54168;DHT22;68429;50.958;3.592;2023-04-15T09:00:38;18.00;99.90
54168;DHT22;68429;50.958;3.592;2023-04-15T09:03:04;18.20;99.90
54168;DHT22;68429;50.958;3.592;2023-04-15T09:05:35;18.00;99.90
54168;DHT22;68429;50.958;3.592;2023-04-15T09:08:02;17.90;99.90
54168;DHT22;68429;50.958;3.592;2023-04-15T09:10:28;17.90;99.90
54168;DHT22;68429;50.958;3.592;2023-04-15T09:12:54;17.70;99.90
54168;DHT22;68429;50.958;3.592;2023-04-15T09:15:20;17.00;99.90
54168;DHT22;68429;50.958;3.592;2023-04-15T09:17:49;16.40;99.90
54168;DHT22;68429;50.958;3.592;2023-04-15T09:20:15;16.30;99.90
54168;DHT22;68429;50.958;3.592;2023-04-15T09:22:45;16.10;99.90
54168;DHT22;68429;50.958;3.592;2023-04-15T09:27:50;16.50;99.90
54168;DHT22;68429;50.958;3.592;2023-04-15T09:30:16;16.90;99.90
54168;DHT22;68429;50.958;3.592;2023-04-15T09:33:08;17.50;99.90
54168;DHT22;68429;50.958;3.592;2023-04-15T09:35:35;17.80;99.90
54168;DHT22;68429;50.958;3.592;2023-04-15T09:38:08;17.60;99.90
54168;DHT22;68429;50.958;3.592;2023-04-15T09:40:40;17.40;99.90
54168;DHT22;68429;50.958;3.592;2023-04-15T09:43:07;17.10;99.90
54168;DHT22;68429;50.958;3.592;2023-04-15T09:45:34;17.10;99.90
54168;DHT22;68429;50.958;3.592;2023-04-15T09:48:24;17.60;99.90
54168;DHT22;68429;50.958;3.592;2023-04-15T09:50:57;17.80;99.90
54168;DHT22;68429;50.958;3.592;2023-04-15T09:53:24;17.70;99.90
54168;DHT22;68429;50.958;3.592;2023-04-15T09:55:56;17.90;99.90
54168;DHT22;68429;50.958;3.592;2023-04-15T09:58:30;17.90;99.40
54168;DHT22;68429;50.958;3.592;2023-04-15T10:00:57;17.70;99.90
54168;DHT22;68429;50.958;3.592;2023-04-15T10:03:25;17.80;99.90
54168;DHT22;68429;50.958;3.592;2023-04-15T10:05:53;18.40;99.90
54168;DHT22;68429;50.958;3.592;2023-04-15T10:08:21;18.30;98.50
54168;DHT22;68429;50.958;3.592;2023-04-15T10:10:48;17.80;99.30
54168;DHT22;68429;50.958;3.592;2023-04-15T10:13:20;18.20;99.60
54168;DHT22;68429;50.958;3.592;2023-04-15T10:16:04;18.80;98.80
54168;DHT22;68429;50.958;3.592;2023-04-15T10:18:33;18.80;98.50
54168;DHT22;68429;50.958;3.592;2023-04-15T10:21:00;18.70;98.80
54168;DHT22;68429;50.958;3.592;2023-04-15T10:23:25;18.90;98.10
54168;DHT22;68429;50.958;3.592;2023-04-15T10:25:53;18.80;97.60
54168;DHT22;68429;50.958;3.592;2023-04-15T10:28:19;18.20;98.80
54168;DHT22;68429;50.958;3.592;2023-04-15T10:30:47;18.90;97.40
54168;DHT22;68429;50.958;3.592;2023-04-15T10:33:16;18.80;97.10
54168;DHT22;68429;50.958;3.592;2023-04-15T10:35:44;19.40;97.80
54168;DHT22;68429;50.958;3.592;2023-04-15T10:43:37;21.30;94.90
54168;DHT22;68429;50.958;3.592;2023-04-15T10:46:04;22.00;94.10
54168;DHT22;68429;50.958;3.592;2023-04-15T10:48:30;22.20;93.30
54168;DHT22;68429;50.958;3.592;2023-04-15T10:50:57;22.60;93.30
54168;DHT22;68429;50.958;3.592;2023-04-15T10:53:29;23.90;92.10
54168;DHT22;68429;50.958;3.592;2023-04-15T10:55:56;25.30;90.00
54168;DHT22;68429;50.958;3.592;2023-04-15T10:58:23;25.30;87.30
54168;DHT22;68429;50.958;3.592;2023-04-15T11:00:50;26.10;87.80
54168;DHT22;68429;50.958;3.592;2023-04-15T11:03:37;26.00;85.20
54168;DHT22;68429;50.958;3.592;2023-04-15T11:06:05;26.10;84.60
54168;DHT22;68429;50.958;3.592;2023-04-15T11:08:52;27.30;83.80
54168;DHT22;68429;50.958;3.592;2023-04-15T11:11:18;27.50;77.40
54168;DHT22;68429;50.958;3.592;2023-04-15T11:13:48;26.30;76.70
54168;DHT22;68429;50.958;3.592;2023-04-15T11:16:15;24.60;78.90
54168;DHT22;68429;50.958;3.592;2023-04-15T11:18:41;22.40;82.00
54168;DHT22;68429;50.958;3.592;2023-04-15T11:21:07;22.60;83.50
54168;DHT22;68429;50.958;3.592;2023-04-15T11:23:39;23.00;82.10
54168;DHT22;68429;50.958;3.592;2023-04-15T11:26:08;23.30;80.80
54168;DHT22;68429;50.958;3.592;2023-04-15T11:28:37;23.80;79.70
54168;DHT22;68429;50.958;3.592;2023-04-15T11:31:08;24.10;79.50
54168;DHT22;68429;50.958;3.592;2023-04-15T11:33:35;23.70;77.20
54168;DHT22;68429;50.958;3.592;2023-04-15T11:36:01;22.90;77.70
54168;DHT22;68429;50.958;3.592;2023-04-15T11:38:28;22.60;79.40
54168;DHT22;68429;50.958;3.592;2023-04-15T11:40:54;22.70;78.20
54168;DHT22;68429;50.958;3.592;2023-04-15T11:43:21;22.90;77.40
54168;DHT22;68429;50.958;3.592;2023-04-15T11:45:52;23.30;78.90
54168;DHT22;68429;50.958;3.592;2023-04-15T11:48:20;23.20;74.50
54168;DHT22;68429;50.958;3.592;2023-04-15T11:50:52;22.90;73.40
54168;DHT22;68429;50.958;3.592;2023-04-15T11:53:18;22.30;74.60
54168;DHT22;68429;50.958;3.592;2023-04-15T11:55:49;22.30;74.70
54168;DHT22;68429;50.958;3.592;2023-04-15T11:58:19;22.30;71.40
54168;DHT22;68429;50.958;3.592;2023-04-15T12:00:53;21.80;74.50
54168;DHT22;68429;50.958;3.592;2023-04-15T12:06:14;24.00;71.80
54168;DHT22;68429;50.958;3.592;2023-04-15T12:09:13;23.00;68.40
54168;DHT22;68429;50.958;3.592;2023-04-15T12:11:41;22.70;69.30
54168;DHT22;68429;50.958;3.592;2023-04-15T12:14:20;23.00;69.40
54168;DHT22;68429;50.958;3.592;2023-04-15T12:17:00;22.80;67.50
54168;DHT22;68429;50.958;3.592;2023-04-15T12:19:36;23.50;65.90
54168;DHT22;68429;50.958;3.592;2023-04-15T12:22:04;22.00;67.10
54168;DHT22;68429;50.958;3.592;2023-04-15T12:24:32;21.60;69.10
54168;DHT22;68429;50.958;3.592;2023-04-15T12:27:04;21.50;70.10
54168;DHT22;68429;50.958;3.592;2023-04-15T12:29:32;22.40;70.60
54168;DHT22;68429;50.958;3.592;2023-04-15T12:32:14;23.00;68.00
54168;DHT22;68429;50.958;3.592;2023-04-15T12:34:48;22.40;68.00
54168;DHT22;68429;50.958;3.592;2023-04-15T12:37:14;23.10;72.80
54168;DHT22;68429;50.958;3.592;2023-04-15T12:39:42;23.90;72.50
54168;DHT22;68429;50.958;3.592;2023-04-15T12:42:08;22.90;70.90
54168;DHT22;68429;50.958;3.592;2023-04-15T12:44:35;23.00;72.60
54168;DHT22;68429;50.958;3.592;2023-04-15T12:47:02;24.10;68.80
54168;DHT22;68429;50.958;3.592;2023-04-15T12:49:28;22.30;69.90
54168;DHT22;68429;50.958;3.592;2023-04-15T12:51:58;22.70;70.90
54168;DHT22;68429;50.958;3.592;2023-04-15T12:54:25;23.70;69.30
54168;DHT22;68429;50.958;3.592;2023-04-15T12:56:52;24.30;67.10
54168;DHT22;68429;50.958;3.592;2023-04-15T12:59:18;24.80;65.70
54168;DHT22;68429;50.958;3.592;2023-04-15T13:01:45;24.80;65.90
54168;DHT22;68429;50.958;3.592;2023-04-15T13:04:11;24.60;65.10
54168;DHT22;68429;50.958;3.592;2023-04-15T13:06:37;24.10;67.30
54168;DHT22;68429;50.958;3.592;2023-04-15T13:09:03;24.00;65.10
54168;DHT22;68429;50.958;3.592;2023-04-15T13:11:29;23.50;65.20
54168;DHT22;68429;50.958;3.592;2023-04-15T13:14:06;24.00;67.00
54168;DHT22;68429;50.958;3.592;2023-04-15T13:16:33;23.20;68.90
54168;DHT22;68429;50.958;3.592;2023-04-15T13:19:00;23.30;66.60
54168;DHT22;68429;50.958;3.592;2023-04-15T13:21:26;22.70;65.90
54168;DHT22;68429;50.958;3.592;2023-04-15T13:23:53;22.00;68.20
54168;DHT22;68429;50.958;3.592;2023-04-15T13:26:18;22.10;68.80
54168;DHT22;68429;50.958;3.592;2023-04-15T13:28:45;23.00;68.40
54168;DHT22;68429;50.958;3.592;2023-04-15T13:31:11;23.80;68.50
54168;DHT22;68429;50.958;3.592;2023-04-15T13:33:36;23.50;67.20
54168;DHT22;68429;50.958;3.592;2023-04-15T13:36:03;23.60;67.80
54168;DHT22;68429;50.958;3.592;2023-04-15T13:38:28;23.70;68.10
54168;DHT22;68429;50.958;3.592;2023-04-15T13:40:54;24.00;68.70
54168;DHT22;68429;50.958;3.592;2023-04-15T13:43:19;24.20;69.00
54168;DHT22;68429;50.958;3.592;2023-04-15T13:45:46;23.50;69.20
54168;DHT22;68429;50.958;3.592;2023-04-15T13:48:12;21.90;69.30
54168;DHT22;68429;50.958;3.592;2023-04-15T13:50:38;21.40;72.40
54168;DHT22;68429;50.958;3.592;2023-04-15T13:53:03;22.00;71.10
54168;DHT22;68429;50.958;3.592;2023-04-15T13:55:29;22.50;71.50
54168;DHT22;68429;50.958;3.592;2023-04-15T13:57:55;22.80;70.60
54168;DHT22;68429;50.958;3.592;2023-04-15T14:00:21;22.90;70.80
54168;DHT22;68429;50.958;3.592;2023-04-15T14:02:47;21.60;74.20
54168;DHT22;68429;50.958;3.592;2023-04-15T14:05:13;21.00;73.40
54168;DHT22;68429;50.958;3.592;2023-04-15T14:07:38;20.20;74.00
54168;DHT22;68429;50.958;3.592;2023-04-15T14:10:04;20.00;77.30
54168;DHT22;68429;50.958;3.592;2023-04-15T14:12:30;19.80;78.50
54168;DHT22;68429;50.958;3.592;2023-04-15T14:14:56;19.10;80.50
54168;DHT22;68429;50.958;3.592;2023-04-15T14:17:22;19.50;81.60
54168;DHT22;68429;50.958;3.592;2023-04-15T14:19:47;20.10;81.70
54168;DHT22;68429;50.958;3.592;2023-04-15T14:22:13;19.50;78.40
54168;DHT22;68429;50.958;3.592;2023-04-15T14:24:38;19.20;78.70
54168;DHT22;68429;50.958;3.592;2023-04-15T14:27:05;18.90;81.10
54168;DHT22;68429;50.958;3.592;2023-04-15T14:29:30;18.30;83.70
54168;DHT22;68429;50.958;3.592;2023-04-15T14:31:56;17.90;86.10
54168;DHT22;68429;50.958;3.592;2023-04-15T14:34:23;18.70;85.40
54168;DHT22;68429;50.958;3.592;2023-04-15T14:36:50;19.70;83.10
54168;DHT22;68429;50.958;3.592;2023-04-15T14:39:18;20.20;81.60
54168;DHT22;68429;50.958;3.592;2023-04-15T14:41:44;21.10;80.90
54168;DHT22;68429;50.958;3.592;2023-04-15T14:44:10;21.70;79.50
54168;DHT22;68429;50.958;3.592;2023-04-15T14:46:36;22.10;79.50
54168;DHT22;68429;50.958;3.592;2023-04-15T14:49:02;22.10;78.70
54168;DHT22;68429;50.958;3.592;2023-04-15T14:51:28;22.00;79.00
54168;DHT22;68429;50.958;3.592;2023-04-15T14:53:54;22.70;78.10
54168;DHT22;68429;50.958;3.592;2023-04-15T14:56:19;22.80;77.30
54168;DHT22;68429;50.958;3.592;2023-04-15T14:58:45;22.40;75.50
54168;DHT22;68429;50.958;3.592;2023-04-15T15:01:11;22.20;76.00
54168;DHT22;68429;50.958;3.592;2023-04-15T15:03:37;22.30;76.30
54168;DHT22;68429;50.958;3.592;2023-04-15T15:06:03;22.20;75.90
54168;DHT22;68429;50.958;3.592;2023-04-15T15:08:29;21.90;74.20
54168;DHT22;68429;50.958;3.592;2023-04-15T15:10:55;21.80;77.50
54168;DHT22;68429;50.958;3.592;2023-04-15T15:13:21;21.30;77.60
54168;DHT22;68429;50.958;3.592;2023-04-15T15:15:46;20.80;78.90
54168;DHT22;68429;50.958;3.592;2023-04-15T15:18:14;20.80;77.60
54168;DHT22;68429;50.958;3.592;2023-04-15T15:20:41;21.30;78.60
54168;DHT22;68429;50.958;3.592;2023-04-15T15:23:06;20.40;79.00
54168;DHT22;68429;50.958;3.592;2023-04-15T15:25:32;20.70;79.00
54168;DHT22;68429;50.958;3.592;2023-04-15T15:27:58;20.60;77.90
54168;DHT22;68429;50.958;3.592;2023-04-15T15:30:24;20.60;76.10
54168;DHT22;68429;50.958;3.592;2023-04-15T15:32:50;20.30;74.90
54168;DHT22;68429;50.958;3.592;2023-04-15T15:35:15;20.30;76.10
54168;DHT22;68429;50.958;3.592;2023-04-15T15:37:41;20.20;76.40
54168;DHT22;68429;50.958;3.592;2023-04-15T15:40:08;20.10;76.40
54168;DHT22;68429;50.958;3.592;2023-04-15T15:42:34;20.00;76.10
54168;DHT22;68429;50.958;3.592;2023-04-15T15:45:01;19.80;75.60